< Typhoon 198711 1987 Season Typhoon 198713 >
Typhoon 198712 (DINAH)
General InformationDetailed Track InformationTrack Information on Google MapsList of All Images || NewsDisaster Info.ResourceGoogle EarthGE AnimationAtom FeedGeoJSON
Detalied Best Track Wind (Time Zone = UTC)
Year Month Day Hour Lat. Long. Wind (kt) Gust (kt) Direc. of Major Storm Axis Radius of Major Storm Axis (nm) Radius of Minor Storm Axis (nm) Direc. of Major Gale Axis Radius of Major Gale Axis (nm) Radius of Minor Gale Axis (nm) Image
1987 8 20 18 12.0 152.0 0 0 - - - - - - Image
1987 8 21 00 11.7 150.7 0 0 - - - - - - Image
1987 8 21 06 11.4 149.4 0 0 - - - - - - Image
1987 8 21 12 11.2 148.3 0 0 - - - - - - Image
1987 8 21 18 11.0 147.0 0 0 - - - - - - Image
1987 8 22 00 11.0 145.7 40 0 - - - symmetric 60 60 Image
1987 8 22 06 11.0 144.5 40 0 - - - symmetric 60 60 Image
1987 8 22 12 11.1 143.4 40 0 - - - symmetric 60 60 Image
1987 8 22 18 11.4 141.3 40 0 - - - symmetric 60 60 Image
1987 8 23 00 11.4 141.3 45 0 - - - symmetric 80 80 Image
1987 8 23 06 11.8 140.4 45 0 - - - symmetric 90 90 Image
1987 8 23 12 12.2 139.4 50 0 - - - symmetric 100 100 Image
1987 8 23 18 12.6 138.4 55 0 symmetric 30 30 symmetric 125 125 Image
1987 8 24 00 12.9 137.3 60 0 symmetric 40 40 symmetric 150 150 Image
1987 8 24 06 13.4 136.1 65 0 symmetric 40 40 symmetric 150 150 Image
1987 8 24 12 14.0 134.9 65 0 symmetric 40 40 symmetric 150 150 Image
1987 8 24 18 14.6 133.7 75 0 symmetric 60 60 symmetric 200 200 Image
1987 8 25 00 15.2 132.9 75 0 symmetric 60 60 symmetric 200 200 Image
1987 8 25 06 16.0 132.0 80 0 symmetric 100 100 symmetric 250 250 Image
1987 8 25 12 16.8 131.3 90 0 symmetric 100 100 symmetric 250 250 Image
1987 8 25 18 17.3 130.6 95 0 symmetric 100 100 symmetric 250 250 Image
1987 8 26 00 17.8 130.3 100 0 symmetric 125 125 symmetric 250 250 Image
1987 8 26 06 18.5 130.1 100 0 symmetric 125 125 symmetric 250 250 Image
1987 8 26 12 19.2 129.8 100 0 SE 180 150 SE 300 250 Image
1987 8 26 18 19.6 129.6 100 0 SE 180 120 SE 300 200 Image
1987 8 27 00 20.0 129.2 100 0 SE 175 125 SE 300 200 Image
1987 8 27 06 20.3 128.8 100 0 symmetric 150 150 SE 300 200 Image
1987 8 27 12 20.4 128.5 100 0 symmetric 150 150 SE 350 250 Image
1987 8 27 18 20.6 128.1 90 0 symmetric 150 150 SE 350 250 Image
1987 8 28 00 21.0 127.6 90 0 symmetric 150 150 SE 400 300 Image
1987 8 28 06 21.2 127.2 90 0 symmetric 150 150 SE 400 300 Image
1987 8 28 12 21.5 127.0 90 0 S 175 150 S 400 300 Image
1987 8 28 18 22.2 126.6 90 0 S 175 150 S 400 300 Image
1987 8 29 00 23.0 126.4 85 0 S 175 150 S 400 325 Image
1987 8 29 06 23.9 126.2 85 0 symmetric 150 150 E 350 300 Image
1987 8 29 12 24.9 126.1 85 0 symmetric 150 150 E 350 300 Image
1987 8 29 18 26.4 126.1 85 0 symmetric 150 150 E 350 300 Image
1987 8 30 00 28.0 126.1 85 0 symmetric 150 150 E 350 300 Image
1987 8 30 06 29.8 126.6 85 0 SE 150 125 SE 350 250 Image
1987 8 30 12 31.7 127.4 85 0 SE 150 100 SE 350 200 Image
1987 8 30 18 34.2 128.9 85 0 SE 150 100 SE 350 200 Image
1987 8 31 00 37.1 131.5 75 0 SE 125 75 SE 300 200 Image
1987 8 31 06 39.5 133.3 75 0 SE 125 80 SE 300 200 Image
1987 8 31 12 41.5 136.1 0 0 - - - - - - Image
1987 8 31 18 43.2 138.7 0 0 - - - - - - Image
1987 9 1 00 45.0 141.7 0 0 - - - - - - Image
1987 9 1 06 46.5 145.0 0 0 - - - - - - Image
1987 9 1 12 47.5 148.5 0 0 - - - - - - Image
1987 9 1 18 48.5 152.0 0 0 - - - - - - Image
1987 9 2 00 49.5 156.0 0 0 - - - - - - Image
1987 9 2 06 50.5 159.5 0 0 - - - - - - Image
1987 9 2 12 51.0 163.0 0 0 - - - - - - Image
1987 9 2 18 50.5 166.5 0 0 - - - - - - Image
1987 9 3 00 50.0 170.0 0 0 - - - - - - Image
1987 9 3 06 49.7 173.0 0 0 - - - - - - Image
1987 9 3 12 49.4 176.0 0 0 - - - - - - Image
1987 9 3 18 49.0 180.0 0 0 - - - - - - Image
Japan Meteorological Agency Best Track Data | Correction Date : 1992-10-21
< Typhoon 198711 1987 Season Typhoon 198713 >

Help